AFL312 URSS-URMM
Flight info
| Callsign | AFL312 |
|---|---|
| Flight time | 0h 54m |
| Altitude | 31000 |
| Route | IRGI1T IRGID A944 GUBOR G487 ERSAR B967 ABELA ABEL5B |
| Aircraft | B738/M-SDE2E3FGHIRWXY/L |
Departure
| Time | 2026-05-06 18:56 |
|---|---|
| Airport | Sochi International Airport (URSS) |
Arrival
| Time | 2026-05-06 19:51 |
|---|---|
| Airport | Mineralnye Vody Airport (URMM) |
| Time | Latitude | Longitude | Altitude | Speed | Heading |
|---|---|---|---|---|---|
| 2026-05-06 18:22 | 43.44675 | 39.93963 | 62 ft | 0 kts | 334° |
| 2026-05-06 18:40 | 43.44672 | 39.93965 | 62 ft | 2 kts | 334° |
| 2026-05-06 18:40 | 43.44658 | 39.93975 | 57 ft | 2 kts | 334° |
| 2026-05-06 18:40 | 43.44654 | 39.93977 | 58 ft | 0 kts | 334° |
| 2026-05-06 18:41 | 43.44652 | 39.93978 | 58 ft | 2 kts | 334° |
| 2026-05-06 18:41 | 43.44637 | 39.93988 | 54 ft | 2 kts | 334° |
| 2026-05-06 18:41 | 43.44623 | 39.93997 | 58 ft | 2 kts | 334° |
| 2026-05-06 18:42 | 43.44608 | 39.94007 | 53 ft | 2 kts | 334° |
| 2026-05-06 18:42 | 43.44593 | 39.94016 | 54 ft | 2 kts | 334° |
| 2026-05-06 18:42 | 43.44578 | 39.94025 | 58 ft | 2 kts | 356° |
| 2026-05-06 18:42 | 43.44563 | 39.94020 | 55 ft | 2 kts | 45° |
| 2026-05-06 18:43 | 43.44557 | 39.94008 | 55 ft | 0 kts | 67° |
| 2026-05-06 18:47 | 43.44560 | 39.94019 | 57 ft | 13 kts | 67° |
| 2026-05-06 18:47 | 43.44596 | 39.94126 | 56 ft | 10 kts | 64° |
| 2026-05-06 18:47 | 43.44635 | 39.94241 | 57 ft | 18 kts | 65° |
| 2026-05-06 18:47 | 43.44669 | 39.94335 | 59 ft | 2 kts | 63° |
| 2026-05-06 18:48 | 43.44676 | 39.94356 | 62 ft | 2 kts | 64° |
| 2026-05-06 18:48 | 43.44710 | 39.94449 | 64 ft | 17 kts | 65° |
| 2026-05-06 18:48 | 43.44743 | 39.94552 | 60 ft | 9 kts | 66° |
| 2026-05-06 18:48 | 43.44768 | 39.94631 | 66 ft | 9 kts | 64° |
| 2026-05-06 18:49 | 43.44796 | 39.94707 | 68 ft | 9 kts | 64° |
| 2026-05-06 18:49 | 43.44828 | 39.94797 | 65 ft | 13 kts | 64° |
| 2026-05-06 18:49 | 43.44867 | 39.94916 | 68 ft | 13 kts | 66° |
| 2026-05-06 18:49 | 43.44904 | 39.95024 | 64 ft | 12 kts | 64° |
| 2026-05-06 18:50 | 43.44941 | 39.95128 | 68 ft | 12 kts | 63° |
| 2026-05-06 18:50 | 43.44973 | 39.95216 | 70 ft | 0 kts | 64° |
| 2026-05-06 18:52 | 43.44982 | 39.95243 | 64 ft | 10 kts | 64° |
| 2026-05-06 18:52 | 43.44993 | 39.95300 | 66 ft | 3 kts | 91° |
| 2026-05-06 18:52 | 43.44991 | 39.95317 | 74 ft | 0 kts | 116° |
| 2026-05-06 18:54 | 43.44941 | 39.95372 | 75 ft | 13 kts | 154° |
| 2026-05-06 18:54 | 43.44887 | 39.95343 | 67 ft | 5 kts | 245° |
| 2026-05-06 18:55 | 43.44884 | 39.95333 | 69 ft | 3 kts | 245° |
| 2026-05-06 18:55 | 43.44884 | 39.95332 | 69 ft | 0 kts | 245° |
| 2026-05-06 18:56 | 43.44832 | 39.95181 | 69 ft | 56 kts | 244° |
| 2026-05-06 18:56 | 43.44675 | 39.94717 | 63 ft | 111 kts | 245° |
| 2026-05-06 18:56 | 43.44241 | 39.93437 | 121 ft | 176 kts | 246° |
| 2026-05-06 18:56 | 43.43716 | 39.91791 | 757 ft | 198 kts | 247° |
| 2026-05-06 18:57 | 43.43301 | 39.89933 | 1599 ft | 207 kts | 262° |
| 2026-05-06 18:57 | 43.43228 | 39.87931 | 2302 ft | 221 kts | 273° |
| 2026-05-06 18:57 | 43.43502 | 39.85785 | 2691 ft | 234 kts | 287° |
| 2026-05-06 18:57 | 43.44128 | 39.83691 | 3165 ft | 244 kts | 298° |
| 2026-05-06 18:58 | 43.45098 | 39.81671 | 3543 ft | 259 kts | 307° |
| 2026-05-06 18:58 | 43.46221 | 39.79686 | 4259 ft | 265 kts | 308° |
| 2026-05-06 18:58 | 43.47368 | 39.77696 | 4676 ft | 264 kts | 308° |
| 2026-05-06 18:58 | 43.48516 | 39.75692 | 4841 ft | 270 kts | 308° |
| 2026-05-06 18:59 | 43.49673 | 39.73653 | 4840 ft | 269 kts | 308° |
| 2026-05-06 18:59 | 43.50815 | 39.71626 | 4839 ft | 266 kts | 307° |
| 2026-05-06 18:59 | 43.51928 | 39.69639 | 4846 ft | 265 kts | 307° |
| 2026-05-06 18:59 | 43.53054 | 39.67621 | 4859 ft | 266 kts | 307° |
| 2026-05-06 19:00 | 43.54185 | 39.65590 | 4853 ft | 267 kts | 307° |
| 2026-05-06 19:00 | 43.55318 | 39.63550 | 4854 ft | 268 kts | 307° |
| 2026-05-06 19:00 | 43.56444 | 39.61521 | 4851 ft | 268 kts | 307° |
| 2026-05-06 19:00 | 43.57585 | 39.59464 | 4849 ft | 268 kts | 307° |
| 2026-05-06 19:01 | 43.58720 | 39.57416 | 4844 ft | 268 kts | 307° |
| 2026-05-06 19:01 | 43.59853 | 39.55368 | 4842 ft | 268 kts | 307° |
| 2026-05-06 19:01 | 43.60984 | 39.53325 | 4843 ft | 268 kts | 307° |
| 2026-05-06 19:01 | 43.62175 | 39.51360 | 4830 ft | 267 kts | 320° |
| 2026-05-06 19:02 | 43.63813 | 39.50210 | 4846 ft | 266 kts | 348° |
| 2026-05-06 19:02 | 43.65651 | 39.50189 | 4847 ft | 266 kts | 12° |
| 2026-05-06 19:02 | 43.67419 | 39.50949 | 4851 ft | 266 kts | 19° |
| 2026-05-06 19:02 | 43.69175 | 39.51797 | 4845 ft | 267 kts | 19° |
| 2026-05-06 19:03 | 43.70917 | 39.52706 | 4834 ft | 268 kts | 28° |
| 2026-05-06 19:03 | 43.72274 | 39.54437 | 4828 ft | 269 kts | 59° |
| 2026-05-06 19:03 | 43.72936 | 39.56844 | 4941 ft | 268 kts | 77° |
| 2026-05-06 19:03 | 43.73323 | 39.59361 | 5199 ft | 269 kts | 78° |
| 2026-05-06 19:04 | 43.73693 | 39.61906 | 5814 ft | 273 kts | 78° |
| 2026-05-06 19:04 | 43.74071 | 39.64497 | 6564 ft | 277 kts | 78° |
| 2026-05-06 19:04 | 43.74457 | 39.67121 | 7335 ft | 279 kts | 78° |
| 2026-05-06 19:04 | 43.74851 | 39.69768 | 8108 ft | 282 kts | 78° |
| 2026-05-06 19:05 | 43.75251 | 39.72444 | 8815 ft | 287 kts | 78° |
| 2026-05-06 19:05 | 43.75658 | 39.75154 | 9556 ft | 289 kts | 78° |
| 2026-05-06 19:05 | 43.76071 | 39.77895 | 10209 ft | 296 kts | 78° |
| 2026-05-06 19:05 | 43.76506 | 39.80782 | 10416 ft | 318 kts | 78° |
| 2026-05-06 19:06 | 43.76973 | 39.83885 | 10600 ft | 340 kts | 78° |
| 2026-05-06 19:06 | 43.77470 | 39.87191 | 10751 ft | 362 kts | 78° |
| 2026-05-06 19:06 | 43.77994 | 39.90683 | 10961 ft | 378 kts | 78° |
| 2026-05-06 19:06 | 43.78505 | 39.94283 | 11513 ft | 383 kts | 79° |
| 2026-05-06 19:07 | 43.78979 | 39.97920 | 12132 ft | 386 kts | 80° |
| 2026-05-06 19:07 | 43.79444 | 40.01613 | 12593 ft | 392 kts | 80° |
| 2026-05-06 19:07 | 43.79912 | 40.05343 | 13157 ft | 394 kts | 80° |
| 2026-05-06 19:07 | 43.80382 | 40.09089 | 13766 ft | 396 kts | 80° |
| 2026-05-06 19:08 | 43.80857 | 40.12853 | 14350 ft | 398 kts | 80° |
| 2026-05-06 19:08 | 43.81330 | 40.16601 | 14839 ft | 402 kts | 80° |
| 2026-05-06 19:08 | 43.81815 | 40.20428 | 15357 ft | 404 kts | 80° |
| 2026-05-06 19:08 | 43.82301 | 40.24275 | 15804 ft | 408 kts | 80° |
| 2026-05-06 19:09 | 43.82789 | 40.28149 | 16284 ft | 408 kts | 80° |
| 2026-05-06 19:09 | 43.83275 | 40.32016 | 16858 ft | 409 kts | 80° |
| 2026-05-06 19:09 | 43.83764 | 40.35915 | 17297 ft | 414 kts | 80° |
| 2026-05-06 19:09 | 43.84259 | 40.39868 | 17672 ft | 418 kts | 80° |
| 2026-05-06 19:10 | 43.84755 | 40.43853 | 18047 ft | 421 kts | 80° |
| 2026-05-06 19:10 | 43.85254 | 40.47864 | 18510 ft | 423 kts | 80° |
| 2026-05-06 19:10 | 43.85751 | 40.51880 | 18955 ft | 425 kts | 80° |
| 2026-05-06 19:10 | 43.86254 | 40.55952 | 18986 ft | 433 kts | 80° |
| 2026-05-06 19:11 | 43.86769 | 40.60104 | 19002 ft | 441 kts | 79° |
| 2026-05-06 19:11 | 43.87670 | 40.64178 | 18993 ft | 447 kts | 64° |
| 2026-05-06 19:11 | 43.89362 | 40.67810 | 19017 ft | 451 kts | 51° |
| 2026-05-06 19:11 | 43.91367 | 40.71129 | 19109 ft | 444 kts | 49° |
| 2026-05-06 19:12 | 43.93412 | 40.74331 | 19329 ft | 444 kts | 48° |
| 2026-05-06 19:12 | 43.95486 | 40.77530 | 19566 ft | 446 kts | 47° |
| 2026-05-06 19:12 | 43.97569 | 40.80730 | 19789 ft | 446 kts | 47° |
| 2026-05-06 19:12 | 43.99648 | 40.83916 | 20007 ft | 444 kts | 47° |
| 2026-05-06 19:13 | 44.01719 | 40.87086 | 20230 ft | 443 kts | 47° |
| 2026-05-06 19:13 | 44.03727 | 40.90239 | 20438 ft | 441 kts | 52° |
| 2026-05-06 19:13 | 44.05239 | 40.93935 | 20640 ft | 440 kts | 69° |
| 2026-05-06 19:13 | 44.06084 | 40.98020 | 20899 ft | 439 kts | 77° |
| 2026-05-06 19:14 | 44.06644 | 41.02090 | 20964 ft | 444 kts | 81° |
| 2026-05-06 19:14 | 44.07047 | 41.06397 | 20960 ft | 452 kts | 83° |
| 2026-05-06 19:14 | 44.07374 | 41.10776 | 20954 ft | 459 kts | 84° |
| 2026-05-06 19:14 | 44.07689 | 41.15217 | 20952 ft | 461 kts | 84° |
| 2026-05-06 19:15 | 44.08012 | 41.19639 | 20946 ft | 458 kts | 84° |
| 2026-05-06 19:15 | 44.08353 | 41.24043 | 20946 ft | 458 kts | 84° |
| 2026-05-06 19:15 | 44.08708 | 41.28443 | 20948 ft | 458 kts | 83° |
| 2026-05-06 19:15 | 44.09074 | 41.32853 | 20944 ft | 459 kts | 83° |
| 2026-05-06 19:16 | 44.09444 | 41.37260 | 20943 ft | 459 kts | 83° |
| 2026-05-06 19:16 | 44.09816 | 41.41667 | 20948 ft | 458 kts | 83° |
| 2026-05-06 19:16 | 44.10183 | 41.46051 | 21033 ft | 456 kts | 83° |
| 2026-05-06 19:16 | 44.10542 | 41.50368 | 21268 ft | 455 kts | 83° |
| 2026-05-06 19:17 | 44.10904 | 41.54743 | 21486 ft | 456 kts | 83° |
| 2026-05-06 19:17 | 44.11265 | 41.59135 | 21713 ft | 457 kts | 83° |
| 2026-05-06 19:17 | 44.11625 | 41.63536 | 21938 ft | 458 kts | 83° |
| 2026-05-06 19:17 | 44.11984 | 41.67937 | 22163 ft | 458 kts | 83° |
| 2026-05-06 19:18 | 44.12342 | 41.72339 | 22384 ft | 458 kts | 83° |
| 2026-05-06 19:18 | 44.12697 | 41.76740 | 22607 ft | 458 kts | 83° |
| 2026-05-06 19:18 | 44.13051 | 41.81139 | 22830 ft | 457 kts | 83° |
| 2026-05-06 19:18 | 44.13403 | 41.85534 | 23054 ft | 456 kts | 83° |
| 2026-05-06 19:19 | 44.13752 | 41.89919 | 23275 ft | 455 kts | 83° |
| 2026-05-06 19:19 | 44.14098 | 41.94294 | 23497 ft | 454 kts | 84° |
| 2026-05-06 19:19 | 44.14443 | 41.98658 | 23719 ft | 453 kts | 84° |
| 2026-05-06 19:19 | 44.14776 | 42.02901 | 23937 ft | 452 kts | 84° |
| 2026-05-06 19:20 | 44.15115 | 42.07252 | 24159 ft | 451 kts | 84° |
| 2026-05-06 19:20 | 44.15452 | 42.11588 | 24380 ft | 450 kts | 84° |
| 2026-05-06 19:20 | 44.15787 | 42.15920 | 24604 ft | 449 kts | 84° |
| 2026-05-06 19:20 | 44.16119 | 42.20241 | 24823 ft | 448 kts | 84° |
| 2026-05-06 19:21 | 44.16450 | 42.24553 | 25047 ft | 448 kts | 84° |
| 2026-05-06 19:21 | 44.16779 | 42.28874 | 25099 ft | 452 kts | 84° |
| 2026-05-06 19:21 | 44.17111 | 42.33267 | 24818 ft | 457 kts | 84° |
| 2026-05-06 19:21 | 44.17441 | 42.37640 | 24527 ft | 452 kts | 84° |
| 2026-05-06 19:22 | 44.17766 | 42.41972 | 24149 ft | 448 kts | 84° |
| 2026-05-06 19:22 | 44.18088 | 42.46291 | 23783 ft | 449 kts | 84° |
| 2026-05-06 19:22 | 44.18410 | 42.50621 | 23413 ft | 450 kts | 84° |
| 2026-05-06 19:22 | 44.18730 | 42.54953 | 23043 ft | 450 kts | 84° |
| 2026-05-06 19:23 | 44.19183 | 42.59266 | 22648 ft | 450 kts | 74° |
| 2026-05-06 19:23 | 44.20473 | 42.63219 | 22281 ft | 450 kts | 57° |
| 2026-05-06 19:23 | 44.22226 | 42.66824 | 21930 ft | 449 kts | 55° |
| 2026-05-06 19:23 | 44.24007 | 42.70416 | 21552 ft | 450 kts | 55° |
| 2026-05-06 19:24 | 44.25775 | 42.74022 | 21175 ft | 450 kts | 56° |
| 2026-05-06 19:24 | 44.27503 | 42.77606 | 20807 ft | 451 kts | 56° |
| 2026-05-06 19:24 | 44.29239 | 42.81250 | 20433 ft | 452 kts | 56° |
| 2026-05-06 19:24 | 44.30962 | 42.84884 | 20053 ft | 449 kts | 56° |
| 2026-05-06 19:25 | 44.32688 | 42.88531 | 19683 ft | 450 kts | 56° |
| 2026-05-06 19:25 | 44.34371 | 42.92092 | 19277 ft | 428 kts | 56° |
| 2026-05-06 19:25 | 44.35974 | 42.95490 | 18806 ft | 411 kts | 56° |
| 2026-05-06 19:25 | 44.37523 | 42.98775 | 18297 ft | 398 kts | 56° |
| 2026-05-06 19:26 | 44.38982 | 43.01873 | 17805 ft | 386 kts | 56° |
| 2026-05-06 19:26 | 44.40437 | 43.04965 | 17302 ft | 376 kts | 56° |
| 2026-05-06 19:26 | 44.41849 | 43.07994 | 16796 ft | 366 kts | 59° |
| 2026-05-06 19:26 | 44.42742 | 43.11269 | 16261 ft | 359 kts | 82° |
| 2026-05-06 19:27 | 44.42702 | 43.14695 | 15785 ft | 350 kts | 100° |
| 2026-05-06 19:27 | 44.41962 | 43.17884 | 15278 ft | 343 kts | 118° |
| 2026-05-06 19:27 | 44.40753 | 43.20725 | 14799 ft | 336 kts | 122° |
| 2026-05-06 19:27 | 44.39508 | 43.23465 | 14294 ft | 331 kts | 123° |
| 2026-05-06 19:28 | 44.38279 | 43.26162 | 13787 ft | 327 kts | 122° |
| 2026-05-06 19:28 | 44.37079 | 43.28834 | 13287 ft | 323 kts | 122° |
| 2026-05-06 19:28 | 44.35901 | 43.31480 | 12789 ft | 319 kts | 122° |
| 2026-05-06 19:28 | 44.34740 | 43.34095 | 12289 ft | 315 kts | 122° |
| 2026-05-06 19:29 | 44.33588 | 43.36690 | 11789 ft | 312 kts | 122° |
| 2026-05-06 19:29 | 44.32449 | 43.39251 | 11290 ft | 309 kts | 122° |
| 2026-05-06 19:29 | 44.31316 | 43.41786 | 10794 ft | 306 kts | 124° |
| 2026-05-06 19:29 | 44.29847 | 43.43874 | 10259 ft | 303 kts | 150° |
| 2026-05-06 19:30 | 44.27891 | 43.44833 | 9771 ft | 298 kts | 174° |
| 2026-05-06 19:30 | 44.25870 | 43.44633 | 9291 ft | 294 kts | 195° |
| 2026-05-06 19:30 | 44.24025 | 43.43464 | 8801 ft | 291 kts | 212° |
| 2026-05-06 19:30 | 44.22314 | 43.41981 | 8305 ft | 289 kts | 212° |
| 2026-05-06 19:31 | 44.20617 | 43.40500 | 7814 ft | 287 kts | 211° |
| 2026-05-06 19:31 | 44.18810 | 43.39464 | 7341 ft | 278 kts | 192° |
| 2026-05-06 19:31 | 44.15151 | 43.38274 | 6367 ft | 263 kts | 200° |
| 2026-05-06 19:32 | 44.13517 | 43.37303 | 6155 ft | 244 kts | 207° |
| 2026-05-06 19:32 | 44.12301 | 43.35896 | 5840 ft | 223 kts | 237° |
| 2026-05-06 19:32 | 44.11963 | 43.33831 | 5100 ft | 224 kts | 278° |
| 2026-05-06 19:32 | 44.12424 | 43.31772 | 4479 ft | 221 kts | 292° |
| 2026-05-06 19:33 | 44.13030 | 43.29913 | 4158 ft | 199 kts | 295° |
| 2026-05-06 19:33 | 44.13657 | 43.28316 | 3913 ft | 179 kts | 300° |
| 2026-05-06 19:33 | 44.14268 | 43.26919 | 3683 ft | 159 kts | 301° |
| 2026-05-06 19:33 | 44.14832 | 43.25667 | 3498 ft | 149 kts | 302° |
| 2026-05-06 19:34 | 44.15380 | 43.24454 | 3302 ft | 148 kts | 302° |
| 2026-05-06 19:34 | 44.15929 | 43.23238 | 3109 ft | 148 kts | 302° |
| 2026-05-06 19:34 | 44.16475 | 43.22028 | 2918 ft | 147 kts | 302° |
| 2026-05-06 19:34 | 44.17019 | 43.20823 | 2723 ft | 147 kts | 302° |
| 2026-05-06 19:35 | 44.17563 | 43.19620 | 2518 ft | 146 kts | 302° |
| 2026-05-06 19:35 | 44.18105 | 43.18421 | 2339 ft | 146 kts | 302° |
| 2026-05-06 19:35 | 44.18645 | 43.17225 | 2137 ft | 146 kts | 302° |
| 2026-05-06 19:35 | 44.19184 | 43.16034 | 1943 ft | 145 kts | 302° |
| 2026-05-06 19:36 | 44.19717 | 43.14842 | 1752 ft | 145 kts | 302° |
| 2026-05-06 19:36 | 44.20258 | 43.13659 | 1557 ft | 144 kts | 302° |
| 2026-05-06 19:36 | 44.20793 | 43.12476 | 1371 ft | 144 kts | 302° |
| 2026-05-06 19:36 | 44.21334 | 43.11287 | 1253 ft | 153 kts | 303° |
| 2026-05-06 19:37 | 44.21933 | 43.10007 | 1666 ft | 164 kts | 303° |
| 2026-05-06 19:37 | 44.22586 | 43.08577 | 1992 ft | 185 kts | 301° |
| 2026-05-06 19:37 | 44.23249 | 43.07084 | 2792 ft | 180 kts | 302° |
| 2026-05-06 19:37 | 44.23707 | 43.06078 | 3234 ft | 182 kts | 302° |
| 2026-05-06 19:38 | 44.24608 | 43.04051 | 3811 ft | 194 kts | 301° |
| 2026-05-06 19:38 | 44.25353 | 43.02379 | 4079 ft | 217 kts | 301° |
| 2026-05-06 19:38 | 44.25919 | 43.01102 | 3995 ft | 238 kts | 301° |
| 2026-05-06 19:38 | 44.26872 | 42.99115 | 3977 ft | 261 kts | 310° |
| 2026-05-06 19:39 | 44.28366 | 42.97662 | 3567 ft | 273 kts | 345° |
| 2026-05-06 19:39 | 44.30199 | 42.97775 | 3743 ft | 263 kts | 22° |
| 2026-05-06 19:39 | 44.31642 | 42.99271 | 3872 ft | 257 kts | 53° |
| 2026-05-06 19:39 | 44.32291 | 43.01517 | 3891 ft | 248 kts | 83° |
| 2026-05-06 19:40 | 44.32149 | 43.03876 | 3922 ft | 245 kts | 108° |
| 2026-05-06 19:40 | 44.31271 | 43.05892 | 3930 ft | 247 kts | 136° |
| 2026-05-06 19:40 | 44.29930 | 43.07368 | 4024 ft | 243 kts | 144° |
| 2026-05-06 19:40 | 44.28548 | 43.08781 | 3936 ft | 249 kts | 144° |
| 2026-05-06 19:41 | 44.27145 | 43.10202 | 3986 ft | 245 kts | 144° |
| 2026-05-06 19:41 | 44.25778 | 43.11614 | 4131 ft | 245 kts | 143° |
| 2026-05-06 19:41 | 44.24393 | 43.13062 | 4001 ft | 249 kts | 143° |
| 2026-05-06 19:41 | 44.23152 | 43.14712 | 3947 ft | 247 kts | 124° |
| 2026-05-06 19:42 | 44.22629 | 43.16956 | 3902 ft | 244 kts | 97° |
| 2026-05-06 19:42 | 44.22435 | 43.19289 | 3921 ft | 244 kts | 96° |
| 2026-05-06 19:42 | 44.22245 | 43.21650 | 3939 ft | 246 kts | 96° |
| 2026-05-06 19:42 | 44.22028 | 43.24020 | 3974 ft | 247 kts | 98° |
| 2026-05-06 19:43 | 44.21783 | 43.26398 | 3965 ft | 248 kts | 98° |
| 2026-05-06 19:43 | 44.21522 | 43.28763 | 4020 ft | 246 kts | 99° |
| 2026-05-06 19:43 | 44.21266 | 43.31129 | 4029 ft | 247 kts | 99° |
| 2026-05-06 19:43 | 44.21004 | 43.33506 | 3974 ft | 250 kts | 98° |
| 2026-05-06 19:44 | 44.20710 | 43.35888 | 3979 ft | 248 kts | 99° |
| 2026-05-06 19:44 | 44.20420 | 43.38253 | 4019 ft | 246 kts | 100° |
| 2026-05-06 19:44 | 44.20125 | 43.40596 | 4113 ft | 244 kts | 100° |
| 2026-05-06 19:44 | 44.19667 | 43.42841 | 4592 ft | 236 kts | 118° |
| 2026-05-06 19:45 | 44.18587 | 43.44559 | 4850 ft | 239 kts | 150° |
| 2026-05-06 19:45 | 44.17035 | 43.45037 | 4596 ft | 238 kts | 188° |
| 2026-05-06 19:45 | 44.15525 | 43.44204 | 4327 ft | 230 kts | 219° |
| 2026-05-06 19:45 | 44.14453 | 43.42666 | 4185 ft | 215 kts | 228° |
| 2026-05-06 19:46 | 44.13475 | 43.41159 | 3996 ft | 204 kts | 229° |
| 2026-05-06 19:46 | 44.12628 | 43.39658 | 3895 ft | 191 kts | 234° |
| 2026-05-06 19:46 | 44.11889 | 43.38127 | 3785 ft | 194 kts | 238° |
| 2026-05-06 19:46 | 44.11250 | 43.36446 | 3782 ft | 197 kts | 252° |
| 2026-05-06 19:47 | 44.11191 | 43.34575 | 3849 ft | 196 kts | 284° |
| 2026-05-06 19:47 | 44.11768 | 43.32851 | 3831 ft | 200 kts | 306° |
| 2026-05-06 19:47 | 44.12570 | 43.31287 | 3880 ft | 192 kts | 305° |
| 2026-05-06 19:47 | 44.13287 | 43.29892 | 4244 ft | 168 kts | 306° |
| 2026-05-06 19:48 | 44.13970 | 43.28518 | 4029 ft | 181 kts | 302° |
| 2026-05-06 19:48 | 44.14681 | 43.26948 | 3659 ft | 199 kts | 301° |
| 2026-05-06 19:48 | 44.15386 | 43.25285 | 3521 ft | 201 kts | 300° |
| 2026-05-06 19:48 | 44.16120 | 43.23607 | 3360 ft | 204 kts | 301° |
| 2026-05-06 19:49 | 44.16868 | 43.21916 | 3178 ft | 206 kts | 301° |
| 2026-05-06 19:49 | 44.17618 | 43.20197 | 2953 ft | 210 kts | 301° |
| 2026-05-06 19:49 | 44.18385 | 43.18480 | 2850 ft | 208 kts | 301° |
| 2026-05-06 19:49 | 44.19109 | 43.16804 | 2548 ft | 196 kts | 300° |
| 2026-05-06 19:50 | 44.19785 | 43.15209 | 2247 ft | 185 kts | 299° |
| 2026-05-06 19:50 | 44.20412 | 43.13687 | 1895 ft | 179 kts | 298° |
| 2026-05-06 19:50 | 44.21013 | 43.12194 | 1564 ft | 171 kts | 300° |
| 2026-05-06 19:50 | 44.21587 | 43.10818 | 1266 ft | 159 kts | 299° |
| 2026-05-06 19:51 | 44.22114 | 43.09530 | 1058 ft | 144 kts | 301° |
| 2026-05-06 19:51 | 44.22418 | 43.08858 | 1051 ft | 53 kts | 303° |
| 2026-05-06 19:51 | 44.22606 | 43.08450 | 1053 ft | 47 kts | 302° |
| 2026-05-06 19:51 | 44.22771 | 43.08092 | 1049 ft | 25 kts | 302° |
| 2026-05-06 19:52 | 44.22844 | 43.07979 | 1047 ft | 14 kts | 317° |
| 2026-05-06 19:52 | 44.22858 | 43.07944 | 1048 ft | 3 kts | 260° |
| 2026-05-06 19:52 | 44.22821 | 43.07947 | 1047 ft | 8 kts | 126° |
| 2026-05-06 19:52 | 44.22789 | 43.08060 | 1048 ft | 22 kts | 112° |
| 2026-05-06 19:53 | 44.22703 | 43.08255 | 1048 ft | 23 kts | 122° |
| 2026-05-06 19:53 | 44.22619 | 43.08444 | 1052 ft | 23 kts | 120° |
| 2026-05-06 19:53 | 44.22536 | 43.08629 | 1053 ft | 22 kts | 124° |
| 2026-05-06 19:53 | 44.22434 | 43.08778 | 1052 ft | 21 kts | 138° |
| 2026-05-06 19:54 | 44.22309 | 43.08881 | 1051 ft | 21 kts | 155° |
| 2026-05-06 19:54 | 44.22193 | 43.08968 | 1052 ft | 17 kts | 148° |
| 2026-05-06 19:54 | 44.22092 | 43.09039 | 1051 ft | 16 kts | 157° |
| 2026-05-06 19:54 | 44.21996 | 43.09112 | 1050 ft | 15 kts | 150° |
| 2026-05-06 19:55 | 44.21911 | 43.09103 | 1050 ft | 8 kts | 214° |
| 2026-05-06 19:55 | 44.21866 | 43.09064 | 1050 ft | 8 kts | 218° |
| 2026-05-06 19:55 | 44.21852 | 43.08993 | 1050 ft | 9 kts | 290° |
| 2026-05-06 19:55 | 44.21885 | 43.08924 | 1050 ft | 5 kts | 290° |
| 2026-05-06 19:56 | 44.21867 | 43.08879 | 1050 ft | 7 kts | 214° |
| 2026-05-06 19:56 | 44.21840 | 43.08855 | 1050 ft | 1 kts | 213° |
| 2026-05-06 19:56 | 44.21837 | 43.08853 | 1050 ft | 0 kts | 212° |